La Doris D — WDD6847 — position and weather

sailwx.info

Track history (hours):
 
Tides and Currents Weather Stations Pressure Air Temp Water Temp Dewpoint Dewpoint Depression Visibility Wind Speed Wind Dir Waves Ship Positions

La Doris D

Owner: HEINLY, DARYL E, NEWPORT BEACH, CA. More information available from US FCC via Universal Licensing System and Coast Guard Vessel Documentation Center.

Last reported at 2015-Mar-30 21:22 UTC. Time now 2015-May-05 00:13 UTC.
Position N 33°36' W 117°55'.
Warning: this ship's position is 35 days out of date.

Length 15 m.

Type: Pleasure craft. MMSI: 367178390.

Date/timePositionNaut miles runAvg speedWind from/ knotsBaromVisibWave heightAir tempDewpointWater temp
2015-Mar-30 21:22N 33°36' W 117°55'0 0.0
2015-Mar-29 21:22N 33°36' W 117°55'2 0.7
2015-Mar-29 18:32N 33°36' W 117°53'27 4.4
2015-Mar-29 12:23N 33°21' W 118°20'0 0.0
2015-Mar-28 19:03N 33°21' W 118°20'0 0.0
2015-Mar-28 16:03N 33°21' W 118°20'0 0.0
2015-Mar-28 15:15N 33°21' W 118°20'0 0.0
2015-Mar-28 14:25N 33°21' W 118°20'0 0.0
2015-Mar-28 12:18N 33°21' W 118°20'0 0.0
2015-Mar-28 11:18N 33°21' W 118°20'0 0.0
2015-Mar-28 10:30N 33°21' W 118°20'0 0.0
2015-Mar-28 09:24N 33°21' W 118°20'0 0.0
2015-Mar-28 08:18N 33°21' W 118°20'0 0.0
2015-Mar-28 07:30N 33°21' W 118°20'0 0.0
2015-Mar-28 06:19N 33°21' W 118°20'0 0.0
2015-Mar-28 03:24N 33°21' W 118°20'0 0.0
2015-Mar-28 02:24N 33°21' W 118°20'0 0.0
2015-Mar-27 23:13N 33°21' W 118°20'0 0.0
2015-Mar-27 22:22N 33°21' W 118°20'7 1.2
2015-Mar-27 16:32N 33°24' W 118°13'1010.3
2015-Mar-27 15:32N 33°30' W 118°02'  
Track history (hours):
 
Tides and Currents Weather Stations Pressure Air Temp Water Temp Dewpoint Dewpoint Depression Visibility Wind Speed Wind Dir Waves Ship Positions

La Doris D

Owner: HEINLY, DARYL E, NEWPORT BEACH, CA. More information available from US FCC via Universal Licensing System and Coast Guard Vessel Documentation Center.

Last reported at 2015-Mar-30 21:22 UTC. Time now 2015-May-05 00:13 UTC.
Position N 33°36' W 117°55'.
Warning: this ship's position is 35 days out of date.

Length 15 m.

Type: Pleasure craft. MMSI: 367178390.

Date/timePositionNaut miles runAvg speedWind from/ knotsBaromVisibWave heightAir tempDewpointWater temp
2015-Mar-30 21:22N 33°36' W 117°55'0 0.0
2015-Mar-29 21:22N 33°36' W 117°55'2 0.7
2015-Mar-29 18:32N 33°36' W 117°53'27 4.4
2015-Mar-29 12:23N 33°21' W 118°20'0 0.0
2015-Mar-28 19:03N 33°21' W 118°20'0 0.0
2015-Mar-28 16:03N 33°21' W 118°20'0 0.0
2015-Mar-28 15:15N 33°21' W 118°20'0 0.0
2015-Mar-28 14:25N 33°21' W 118°20'0 0.0
2015-Mar-28 12:18N 33°21' W 118°20'0 0.0
2015-Mar-28 11:18N 33°21' W 118°20'0 0.0
2015-Mar-28 10:30N 33°21' W 118°20'0 0.0
2015-Mar-28 09:24N 33°21' W 118°20'0 0.0
2015-Mar-28 08:18N 33°21' W 118°20'0 0.0
2015-Mar-28 07:30N 33°21' W 118°20'0 0.0
2015-Mar-28 06:19N 33°21' W 118°20'0 0.0
2015-Mar-28 03:24N 33°21' W 118°20'0 0.0
2015-Mar-28 02:24N 33°21' W 118°20'0 0.0
2015-Mar-27 23:13N 33°21' W 118°20'0 0.0
2015-Mar-27 22:22N 33°21' W 118°20'7 1.2
2015-Mar-27 16:32N 33°24' W 118°13'1010.3
2015-Mar-27 15:32N 33°30' W 118°02'  

Dump ship's entire track history